sensor_id;sensor_type;location;lat;lon;timestamp;pressure;altitude;pressure_sealevel;temperature;humidity
30421;BME280;17218;54.070;10.012;2024-03-22T00:01:50;101644.75;;;7.90;100.00
30421;BME280;17218;54.070;10.012;2024-03-22T00:04:16;101635.38;;;7.95;100.00
30421;BME280;17218;54.070;10.012;2024-03-22T00:06:43;101638.72;;;7.90;100.00
30421;BME280;17218;54.070;10.012;2024-03-22T00:09:09;101638.50;;;7.77;100.00
30421;BME280;17218;54.070;10.012;2024-03-22T00:11:36;101633.34;;;7.77;100.00
30421;BME280;17218;54.070;10.012;2024-03-22T00:14:01;101634.41;;;7.88;100.00
30421;BME280;17218;54.070;10.012;2024-03-22T00:16:29;101625.88;;;7.91;100.00
30421;BME280;17218;54.070;10.012;2024-03-22T00:18:55;101627.69;;;7.97;100.00
30421;BME280;17218;54.070;10.012;2024-03-22T00:21:22;101615.63;;;7.96;100.00
30421;BME280;17218;54.070;10.012;2024-03-22T00:23:47;101614.69;;;7.91;100.00
30421;BME280;17218;54.070;10.012;2024-03-22T00:26:14;101608.56;;;7.84;100.00
30421;BME280;17218;54.070;10.012;2024-03-22T00:28:39;101593.88;;;7.81;100.00
30421;BME280;17218;54.070;10.012;2024-03-22T00:31:06;101586.25;;;7.87;100.00
30421;BME280;17218;54.070;10.012;2024-03-22T00:33:33;101580.22;;;7.87;100.00
30421;BME280;17218;54.070;10.012;2024-03-22T00:35:59;101569.94;;;7.90;100.00
30421;BME280;17218;54.070;10.012;2024-03-22T00:38:25;101564.88;;;7.95;100.00
30421;BME280;17218;54.070;10.012;2024-03-22T00:40:51;101567.34;;;7.88;100.00
30421;BME280;17218;54.070;10.012;2024-03-22T00:43:17;101563.88;;;7.88;100.00
30421;BME280;17218;54.070;10.012;2024-03-22T00:45:43;101574.53;;;8.07;100.00
30421;BME280;17218;54.070;10.012;2024-03-22T00:48:09;101561.72;;;8.11;100.00
30421;BME280;17218;54.070;10.012;2024-03-22T00:50:37;101562.38;;;8.01;100.00
30421;BME280;17218;54.070;10.012;2024-03-22T00:53:03;101552.06;;;8.01;100.00
30421;BME280;17218;54.070;10.012;2024-03-22T00:55:31;101551.44;;;8.16;100.00
30421;BME280;17218;54.070;10.012;2024-03-22T00:57:56;101548.91;;;8.19;100.00
30421;BME280;17218;54.070;10.012;2024-03-22T01:00:23;101536.75;;;8.12;100.00
30421;BME280;17218;54.070;10.012;2024-03-22T01:02:49;101523.84;;;8.12;100.00
30421;BME280;17218;54.070;10.012;2024-03-22T01:05:16;101519.66;;;8.19;100.00
30421;BME280;17218;54.070;10.012;2024-03-22T01:07:43;101504.88;;;8.10;100.00
30421;BME280;17218;54.070;10.012;2024-03-22T01:10:10;101491.81;;;7.97;100.00
30421;BME280;17218;54.070;10.012;2024-03-22T01:12:35;101499.63;;;8.02;100.00
30421;BME280;17218;54.070;10.012;2024-03-22T01:15:02;101486.56;;;7.91;100.00
30421;BME280;17218;54.070;10.012;2024-03-22T01:17:28;101498.72;;;7.98;100.00
30421;BME280;17218;54.070;10.012;2024-03-22T01:19:55;101497.09;;;8.05;100.00
30421;BME280;17218;54.070;10.012;2024-03-22T01:22:20;101489.34;;;8.04;100.00
30421;BME280;17218;54.070;10.012;2024-03-22T01:24:48;101484.06;;;7.97;100.00
30421;BME280;17218;54.070;10.012;2024-03-22T01:27:13;101468.72;;;8.07;100.00
30421;BME280;17218;54.070;10.012;2024-03-22T01:29:40;101464.59;;;8.20;100.00
30421;BME280;17218;54.070;10.012;2024-03-22T01:32:06;101467.94;;;8.11;100.00
30421;BME280;17218;54.070;10.012;2024-03-22T01:34:33;101470.66;;;8.20;100.00
30421;BME280;17218;54.070;10.012;2024-03-22T01:37:00;101473.22;;;8.19;100.00
30421;BME280;17218;54.070;10.012;2024-03-22T01:39:28;101466.41;;;8.26;100.00
30421;BME280;17218;54.070;10.012;2024-03-22T01:41:55;101461.41;;;8.37;100.00
30421;BME280;17218;54.070;10.012;2024-03-22T01:44:27;101451.81;;;8.28;100.00
30421;BME280;17218;54.070;10.012;2024-03-22T01:46:52;101447.44;;;8.22;100.00
30421;BME280;17218;54.070;10.012;2024-03-22T01:49:19;101452.66;;;8.27;100.00
30421;BME280;17218;54.070;10.012;2024-03-22T01:51:44;101447.53;;;8.28;100.00
30421;BME280;17218;54.070;10.012;2024-03-22T01:54:11;101455.97;;;8.18;100.00
30421;BME280;17218;54.070;10.012;2024-03-22T01:56:37;101444.88;;;8.25;100.00
30421;BME280;17218;54.070;10.012;2024-03-22T01:59:05;101452.72;;;8.30;100.00
30421;BME280;17218;54.070;10.012;2024-03-22T02:01:31;101448.34;;;8.27;100.00
30421;BME280;17218;54.070;10.012;2024-03-22T02:03:57;101454.53;;;8.39;100.00
30421;BME280;17218;54.070;10.012;2024-03-22T02:06:23;101451.09;;;8.40;100.00
30421;BME280;17218;54.070;10.012;2024-03-22T02:08:49;101455.22;;;8.25;100.00
30421;BME280;17218;54.070;10.012;2024-03-22T02:11:15;101454.41;;;8.29;100.00
30421;BME280;17218;54.070;10.012;2024-03-22T02:13:42;101442.41;;;8.31;100.00
30421;BME280;17218;54.070;10.012;2024-03-22T02:16:09;101430.38;;;8.32;100.00
30421;BME280;17218;54.070;10.012;2024-03-22T02:18:36;101437.47;;;8.50;100.00
30421;BME280;17218;54.070;10.012;2024-03-22T02:21:01;101432.25;;;8.47;100.00
30421;BME280;17218;54.070;10.012;2024-03-22T02:23:32;101422.75;;;8.41;100.00
30421;BME280;17218;54.070;10.012;2024-03-22T02:25:58;101414.16;;;8.44;100.00
30421;BME280;17218;54.070;10.012;2024-03-22T02:28:24;101400.44;;;8.48;100.00
30421;BME280;17218;54.070;10.012;2024-03-22T02:30:50;101400.34;;;8.40;100.00
30421;BME280;17218;54.070;10.012;2024-03-22T02:33:16;101404.63;;;8.40;100.00
30421;BME280;17218;54.070;10.012;2024-03-22T02:35:42;101411.59;;;8.45;100.00
30421;BME280;17218;54.070;10.012;2024-03-22T02:38:08;101405.50;;;8.40;100.00
30421;BME280;17218;54.070;10.012;2024-03-22T02:40:35;101392.50;;;8.32;100.00
30421;BME280;17218;54.070;10.012;2024-03-22T02:43:02;101389.97;;;8.35;100.00
30421;BME280;17218;54.070;10.012;2024-03-22T02:45:27;101383.94;;;8.35;100.00
30421;BME280;17218;54.070;10.012;2024-03-22T02:47:54;101393.47;;;8.41;100.00
30421;BME280;17218;54.070;10.012;2024-03-22T02:50:19;101374.59;;;8.45;100.00
30421;BME280;17218;54.070;10.012;2024-03-22T02:52:46;101377.06;;;8.37;100.00
30421;BME280;17218;54.070;10.012;2024-03-22T02:55:11;101373.63;;;8.38;100.00
30421;BME280;17218;54.070;10.012;2024-03-22T02:57:39;101371.09;;;8.41;100.00
30421;BME280;17218;54.070;10.012;2024-03-22T03:00:06;101359.13;;;8.46;100.00
30421;BME280;17218;54.070;10.012;2024-03-22T03:02:32;101376.28;;;8.41;100.00
30421;BME280;17218;54.070;10.012;2024-03-22T03:04:58;101369.34;;;8.39;100.00
30421;BME280;17218;54.070;10.012;2024-03-22T03:07:25;101367.69;;;8.44;100.00
30421;BME280;17218;54.070;10.012;2024-03-22T03:09:50;101355.66;;;8.44;100.00
30421;BME280;17218;54.070;10.012;2024-03-22T03:12:17;101348.00;;;8.52;100.00
30421;BME280;17218;54.070;10.012;2024-03-22T03:14:44;101359.41;;;8.71;100.00
30421;BME280;17218;54.070;10.012;2024-03-22T03:17:10;101347.41;;;8.77;100.00
30421;BME280;17218;54.070;10.012;2024-03-22T03:19:36;101350.78;;;8.69;100.00
30421;BME280;17218;54.070;10.012;2024-03-22T03:22:02;101343.00;;;8.68;100.00
30421;BME280;17218;54.070;10.012;2024-03-22T03:24:28;101346.56;;;8.76;100.00
30421;BME280;17218;54.070;10.012;2024-03-22T03:26:55;101329.19;;;8.64;100.00
30421;BME280;17218;54.070;10.012;2024-03-22T03:29:20;101338.47;;;8.50;100.00
30421;BME280;17218;54.070;10.012;2024-03-22T03:31:48;101326.47;;;8.53;100.00
30421;BME280;17218;54.070;10.012;2024-03-22T03:34:14;101324.72;;;8.51;100.00
30421;BME280;17218;54.070;10.012;2024-03-22T03:36:41;101302.44;;;8.56;100.00
30421;BME280;17218;54.070;10.012;2024-03-22T03:39:06;101307.66;;;8.64;100.00
30421;BME280;17218;54.070;10.012;2024-03-22T03:41:33;101306.03;;;8.72;100.00
30421;BME280;17218;54.070;10.012;2024-03-22T03:43:58;101292.19;;;8.65;100.00
30421;BME280;17218;54.070;10.012;2024-03-22T03:46:25;101289.56;;;8.64;100.00
30421;BME280;17218;54.070;10.012;2024-03-22T03:48:51;101286.28;;;8.79;100.00
30421;BME280;17218;54.070;10.012;2024-03-22T03:51:18;101287.16;;;8.78;100.00
30421;BME280;17218;54.070;10.012;2024-03-22T03:53:43;101282.78;;;8.72;100.00
30421;BME280;17218;54.070;10.012;2024-03-22T03:56:10;101275.94;;;8.77;100.00
30421;BME280;17218;54.070;10.012;2024-03-22T03:58:35;101274.97;;;8.67;100.00
30421;BME280;17218;54.070;10.012;2024-03-22T04:01:05;101284.59;;;8.82;100.00
30421;BME280;17218;54.070;10.012;2024-03-22T04:03:30;101280.38;;;8.92;100.00
30421;BME280;17218;54.070;10.012;2024-03-22T04:05:58;101268.34;;;8.96;100.00
30421;BME280;17218;54.070;10.012;2024-03-22T04:08:25;101264.06;;;9.03;100.00
30421;BME280;17218;54.070;10.012;2024-03-22T04:10:52;101270.03;;;8.91;100.00
30421;BME280;17218;54.070;10.012;2024-03-22T04:13:17;101252.84;;;8.94;100.00
30421;BME280;17218;54.070;10.012;2024-03-22T04:15:44;101262.31;;;8.95;100.00
30421;BME280;17218;54.070;10.012;2024-03-22T04:18:09;101249.44;;;9.02;100.00
30421;BME280;17218;54.070;10.012;2024-03-22T04:20:36;101246.69;;;8.80;100.00
30421;BME280;17218;54.070;10.012;2024-03-22T04:23:03;101242.50;;;8.98;100.00
30421;BME280;17218;54.070;10.012;2024-03-22T04:25:29;101236.47;;;8.94;100.00
30421;BME280;17218;54.070;10.012;2024-03-22T04:27:55;101242.34;;;8.73;100.00
30421;BME280;17218;54.070;10.012;2024-03-22T04:30:22;101242.41;;;8.82;100.00
30421;BME280;17218;54.070;10.012;2024-03-22T04:32:47;101250.25;;;8.94;100.00
30421;BME280;17218;54.070;10.012;2024-03-22T04:35:14;101225.22;;;8.90;100.00
30421;BME280;17218;54.070;10.012;2024-03-22T04:37:39;101243.25;;;8.84;100.00
30421;BME280;17218;54.070;10.012;2024-03-22T04:40:16;101240.81;;;9.03;100.00
30421;BME280;17218;54.070;10.012;2024-03-22T04:42:43;101239.09;;;9.00;100.00
30421;BME280;17218;54.070;10.012;2024-03-22T04:45:10;101230.38;;;8.87;100.00
30421;BME280;17218;54.070;10.012;2024-03-22T04:47:36;101226.13;;;8.92;100.00
30421;BME280;17218;54.070;10.012;2024-03-22T04:50:03;101221.81;;;8.94;100.00
30421;BME280;17218;54.070;10.012;2024-03-22T04:52:30;101221.84;;;8.99;100.00
30421;BME280;17218;54.070;10.012;2024-03-22T04:54:56;101222.59;;;8.82;100.00
30421;BME280;17218;54.070;10.012;2024-03-22T04:57:24;101213.13;;;8.85;100.00
30421;BME280;17218;54.070;10.012;2024-03-22T04:59:50;101204.56;;;8.93;100.00
30421;BME280;17218;54.070;10.012;2024-03-22T05:02:16;101198.56;;;8.96;100.00
30421;BME280;17218;54.070;10.012;2024-03-22T05:04:43;101198.56;;;8.94;100.00
30421;BME280;17218;54.070;10.012;2024-03-22T05:07:09;101197.75;;;9.02;100.00
30421;BME280;17218;54.070;10.012;2024-03-22T05:09:35;101197.81;;;9.11;100.00
30421;BME280;17218;54.070;10.012;2024-03-22T05:12:02;101183.13;;;9.02;100.00
30421;BME280;17218;54.070;10.012;2024-03-22T05:14:29;101186.59;;;9.07;100.00
30421;BME280;17218;54.070;10.012;2024-03-22T05:16:55;101190.03;;;9.08;100.00
30421;BME280;17218;54.070;10.012;2024-03-22T05:19:21;101192.72;;;9.21;100.00
30421;BME280;17218;54.070;10.012;2024-03-22T05:21:48;101185.78;;;9.18;100.00
30421;BME280;17218;54.070;10.012;2024-03-22T05:24:13;101177.16;;;9.16;100.00
30421;BME280;17218;54.070;10.012;2024-03-22T05:26:40;101177.16;;;9.13;100.00
30421;BME280;17218;54.070;10.012;2024-03-22T05:29:06;101190.09;;;9.19;100.00
30421;BME280;17218;54.070;10.012;2024-03-22T05:31:45;101180.66;;;9.27;100.00
30421;BME280;17218;54.070;10.012;2024-03-22T05:34:11;101173.78;;;9.34;100.00
30421;BME280;17218;54.070;10.012;2024-03-22T05:36:38;101177.25;;;9.36;100.00
30421;BME280;17218;54.070;10.012;2024-03-22T05:39:03;101180.72;;;9.35;100.00
30421;BME280;17218;54.070;10.012;2024-03-22T05:41:33;101177.22;;;9.25;100.00
30421;BME280;17218;54.070;10.012;2024-03-22T05:43:59;101186.66;;;9.25;100.00
30421;BME280;17218;54.070;10.012;2024-03-22T05:46:25;101174.66;;;9.33;100.00
30421;BME280;17218;54.070;10.012;2024-03-22T05:48:53;101180.75;;;9.48;100.00
30421;BME280;17218;54.070;10.012;2024-03-22T05:51:20;101173.84;;;9.40;100.00
30421;BME280;17218;54.070;10.012;2024-03-22T05:53:46;101165.25;;;9.48;100.00
30421;BME280;17218;54.070;10.012;2024-03-22T05:56:12;101159.28;;;9.63;100.00
30421;BME280;17218;54.070;10.012;2024-03-22T05:58:38;101148.09;;;9.67;100.00
30421;BME280;17218;54.070;10.012;2024-03-22T06:01:05;101146.31;;;9.50;100.00
30421;BME280;17218;54.070;10.012;2024-03-22T06:03:42;101154.91;;;9.45;100.00
30421;BME280;17218;54.070;10.012;2024-03-22T06:06:25;101148.06;;;9.58;100.00
30421;BME280;17218;54.070;10.012;2024-03-22T06:08:55;101154.91;;;9.45;100.00
30421;BME280;17218;54.070;10.012;2024-03-22T06:11:22;101151.41;;;9.36;100.00
30421;BME280;17218;54.070;10.012;2024-03-22T06:13:59;101158.38;;;9.54;100.00
30421;BME280;17218;54.070;10.012;2024-03-22T06:16:27;101148.97;;;9.74;100.00
30421;BME280;17218;54.070;10.012;2024-03-22T06:19:05;101142.00;;;9.56;100.00
30421;BME280;17218;54.070;10.012;2024-03-22T06:22:03;101140.28;;;9.65;100.00
30421;BME280;17218;54.070;10.012;2024-03-22T06:24:30;101126.53;;;9.77;100.00
30421;BME280;17218;54.070;10.012;2024-03-22T06:27:14;101115.34;;;9.83;100.00
30421;BME280;17218;54.070;10.012;2024-03-22T06:29:50;101123.06;;;9.63;100.00
30421;BME280;17218;54.070;10.012;2024-03-22T06:32:24;101117.84;;;9.57;100.00
30421;BME280;17218;54.070;10.012;2024-03-22T06:34:51;101112.69;;;9.60;100.00
30421;BME280;17218;54.070;10.012;2024-03-22T06:37:20;101114.47;;;9.69;100.00
30421;BME280;17218;54.070;10.012;2024-03-22T06:40:07;101102.41;;;9.72;100.00
30421;BME280;17218;54.070;10.012;2024-03-22T06:42:33;101093.78;;;9.80;100.00
30421;BME280;17218;54.070;10.012;2024-03-22T06:45:05;101092.06;;;9.89;100.00
30421;BME280;17218;54.070;10.012;2024-03-22T06:47:35;101086.91;;;9.96;100.00
30421;BME280;17218;54.070;10.012;2024-03-22T06:50:05;101086.91;;;10.05;100.00
30421;BME280;17218;54.070;10.012;2024-03-22T06:56:42;101074.81;;;9.93;100.00
30421;BME280;17218;54.070;10.012;2024-03-22T06:59:22;101066.19;;;9.93;100.00
30421;BME280;17218;54.070;10.012;2024-03-22T07:02:03;101066.19;;;9.85;100.00
30421;BME280;17218;54.070;10.012;2024-03-22T07:04:29;101064.44;;;9.93;100.00
30421;BME280;17218;54.070;10.012;2024-03-22T07:06:55;101073.09;;;9.89;100.00
30421;BME280;17218;54.070;10.012;2024-03-22T07:09:23;101064.47;;;9.87;100.00
30421;BME280;17218;54.070;10.012;2024-03-22T07:12:41;101073.06;;;9.97;100.00
30421;BME280;17218;54.070;10.012;2024-03-22T07:15:18;101067.03;;;9.90;100.00
30421;BME280;17218;54.070;10.012;2024-03-22T07:17:46;101063.63;;;9.91;100.00
30421;BME280;17218;54.070;10.012;2024-03-22T07:20:12;101059.28;;;9.93;100.00
30421;BME280;17218;54.070;10.012;2024-03-22T07:22:38;101063.59;;;10.07;100.00
30421;BME280;17218;54.070;10.012;2024-03-22T07:25:04;101069.63;;;10.13;100.00
30421;BME280;17218;54.070;10.012;2024-03-22T07:27:31;101062.72;;;10.23;100.00
30421;BME280;17218;54.070;10.012;2024-03-22T07:30:08;101069.63;;;10.24;100.00
30421;BME280;17218;54.070;10.012;2024-03-22T07:32:38;101070.50;;;10.17;100.00
30421;BME280;17218;54.070;10.012;2024-03-22T07:35:04;101077.41;;;10.07;100.00
30421;BME280;17218;54.070;10.012;2024-03-22T07:37:32;101080.00;;;10.06;100.00
30421;BME280;17218;54.070;10.012;2024-03-22T07:39:58;101080.84;;;9.84;100.00
30421;BME280;17218;54.070;10.012;2024-03-22T07:42:27;101088.59;;;9.84;100.00
30421;BME280;17218;54.070;10.012;2024-03-22T07:44:52;101084.31;;;9.96;100.00
30421;BME280;17218;54.070;10.012;2024-03-22T07:47:20;101091.16;;;9.76;100.00
30421;BME280;17218;54.070;10.012;2024-03-22T07:49:46;101080.84;;;9.81;100.00
30421;BME280;17218;54.070;10.012;2024-03-22T07:52:12;101101.53;;;9.78;100.00
30421;BME280;17218;54.070;10.012;2024-03-22T07:54:38;101085.19;;;9.96;100.00
30421;BME280;17218;54.070;10.012;2024-03-22T07:57:04;101083.44;;;9.90;100.00
30421;BME280;17218;54.070;10.012;2024-03-22T07:59:30;101084.28;;;9.75;100.00
30421;BME280;17218;54.070;10.012;2024-03-22T08:01:56;101078.25;;;9.84;100.00
30421;BME280;17218;54.070;10.012;2024-03-22T08:04:24;101058.41;;;9.88;100.00
30421;BME280;17218;54.070;10.012;2024-03-22T08:06:50;101069.63;;;9.79;100.00
30421;BME280;17218;54.070;10.012;2024-03-22T08:09:16;101092.88;;;9.70;100.00
30421;BME280;17218;54.070;10.012;2024-03-22T08:11:43;101095.50;;;9.81;100.00
30421;BME280;17218;54.070;10.012;2024-03-22T08:14:09;101095.47;;;9.71;100.00
30421;BME280;17218;54.070;10.012;2024-03-22T08:16:35;101087.72;;;9.77;100.00
30421;BME280;17218;54.070;10.012;2024-03-22T08:19:01;101098.97;;;9.80;100.00
30421;BME280;17218;54.070;10.012;2024-03-22T08:21:29;101101.53;;;9.95;100.00
30421;BME280;17218;54.070;10.012;2024-03-22T08:23:54;101100.72;;;10.06;100.00
30421;BME280;17218;54.070;10.012;2024-03-22T08:26:21;101092.06;;;9.88;100.00
30421;BME280;17218;54.070;10.012;2024-03-22T08:28:47;101096.34;;;9.70;100.00
30421;BME280;17218;54.070;10.012;2024-03-22T08:31:14;101109.31;;;9.80;100.00
30421;BME280;17218;54.070;10.012;2024-03-22T08:33:40;101104.13;;;9.84;100.00
30421;BME280;17218;54.070;10.012;2024-03-22T08:36:06;101111.88;;;9.83;100.00
30421;BME280;17218;54.070;10.012;2024-03-22T08:38:33;101094.66;;;9.97;100.00
30421;BME280;17218;54.070;10.012;2024-03-22T08:41:00;101092.91;;;9.81;100.00
30421;BME280;17218;54.070;10.012;2024-03-22T08:43:25;101102.38;;;9.77;100.00
30421;BME280;17218;54.070;10.012;2024-03-22T08:45:54;101098.09;;;9.84;100.00
30421;BME280;17218;54.070;10.012;2024-03-22T08:48:19;101097.22;;;9.89;100.00
30421;BME280;17218;54.070;10.012;2024-03-22T08:50:46;101092.06;;;10.07;100.00
30421;BME280;17218;54.070;10.012;2024-03-22T08:53:11;101077.41;;;10.18;100.00
30421;BME280;17218;54.070;10.012;2024-03-22T08:55:45;101073.09;;;10.30;100.00
30421;BME280;17218;54.070;10.012;2024-03-22T08:58:10;101081.72;;;10.36;100.00
30421;BME280;17218;54.070;10.012;2024-03-22T09:00:37;101080.00;;;10.29;100.00
30421;BME280;17218;54.070;10.012;2024-03-22T09:03:03;101072.25;;;10.17;100.00
30421;BME280;17218;54.070;10.012;2024-03-22T09:05:30;101051.53;;;10.09;100.00
30421;BME280;17218;54.070;10.012;2024-03-22T09:07:55;101071.34;;;10.27;100.00
30421;BME280;17218;54.070;10.012;2024-03-22T09:10:22;101055.81;;;10.38;100.00
30421;BME280;17218;54.070;10.012;2024-03-22T09:12:49;101060.13;;;10.26;100.00
30421;BME280;17218;54.070;10.012;2024-03-22T09:15:15;101068.75;;;10.30;100.00
30421;BME280;17218;54.070;10.012;2024-03-22T09:17:41;101065.31;;;10.12;100.00
30421;BME280;17218;54.070;10.012;2024-03-22T09:20:09;101048.94;;;10.21;100.00
30421;BME280;17218;54.070;10.012;2024-03-22T09:22:34;101054.94;;;10.37;100.00
30421;BME280;17218;54.070;10.012;2024-03-22T09:25:01;101047.19;;;10.33;100.00
30421;BME280;17218;54.070;10.012;2024-03-22T09:27:26;101040.28;;;10.44;100.00
30421;BME280;17218;54.070;10.012;2024-03-22T09:29:54;101048.91;;;10.59;100.00
30421;BME280;17218;54.070;10.012;2024-03-22T09:32:21;101039.41;;;10.59;100.00
30421;BME280;17218;54.070;10.012;2024-03-22T09:34:48;101025.53;;;10.74;100.00
30421;BME280;17218;54.070;10.012;2024-03-22T09:37:14;101020.28;;;10.93;100.00
30421;BME280;17218;54.070;10.012;2024-03-22T09:39:40;101020.38;;;10.68;100.00
30421;BME280;17218;54.070;10.012;2024-03-22T09:42:06;101014.28;;;10.80;100.00
30421;BME280;17218;54.070;10.012;2024-03-22T09:44:33;101014.31;;;10.76;100.00
30421;BME280;17218;54.070;10.012;2024-03-22T09:47:00;101020.31;;;10.89;100.00
30421;BME280;17218;54.070;10.012;2024-03-22T09:49:27;101006.50;;;10.83;100.00
30421;BME280;17218;54.070;10.012;2024-03-22T09:51:52;101002.16;;;10.89;100.00
30421;BME280;17218;54.070;10.012;2024-03-22T09:54:19;100993.53;;;10.87;100.00
30421;BME280;17218;54.070;10.012;2024-03-22T09:56:48;100980.63;;;10.71;100.00
30421;BME280;17218;54.070;10.012;2024-03-22T09:59:15;100972.88;;;10.72;100.00
30421;BME280;17218;54.070;10.012;2024-03-22T10:01:41;100974.63;;;10.64;100.00
30421;BME280;17218;54.070;10.012;2024-03-22T10:04:10;100978.91;;;10.65;100.00
30421;BME280;17218;54.070;10.012;2024-03-22T10:06:35;100978.91;;;10.73;100.00
30421;BME280;17218;54.070;10.012;2024-03-22T10:09:02;100988.44;;;10.61;100.00
30421;BME280;17218;54.070;10.012;2024-03-22T10:11:29;100993.66;;;10.44;100.00
30421;BME280;17218;54.070;10.012;2024-03-22T10:13:56;100991.09;;;10.29;100.00
30421;BME280;17218;54.070;10.012;2024-03-22T10:16:21;101005.78;;;10.14;100.00
30421;BME280;17218;54.070;10.012;2024-03-22T10:18:48;100999.75;;;10.26;100.00
30421;BME280;17218;54.070;10.012;2024-03-22T10:21:17;101001.47;;;10.16;100.00
30421;BME280;17218;54.070;10.012;2024-03-22T10:23:44;101006.63;;;10.30;100.00
30421;BME280;17218;54.070;10.012;2024-03-22T10:26:12;100993.69;;;10.25;100.00
30421;BME280;17218;54.070;10.012;2024-03-22T10:28:44;101004.91;;;10.31;100.00
30421;BME280;17218;54.070;10.012;2024-03-22T10:31:10;100996.22;;;10.47;100.00
30421;BME280;17218;54.070;10.012;2024-03-22T10:33:38;100995.41;;;10.26;100.00
30421;BME280;17218;54.070;10.012;2024-03-22T10:36:04;101002.34;;;10.26;100.00
30421;BME280;17218;54.070;10.012;2024-03-22T10:38:33;101004.91;;;10.29;100.00
30421;BME280;17218;54.070;10.012;2024-03-22T10:41:01;100985.97;;;10.02;100.00
30421;BME280;17218;54.070;10.012;2024-03-22T10:43:29;100997.19;;;9.81;100.00
30421;BME280;17218;54.070;10.012;2024-03-22T10:45:56;100997.16;;;9.92;100.00
30421;BME280;17218;54.070;10.012;2024-03-22T10:48:29;100998.03;;;9.84;100.00
30421;BME280;17218;54.070;10.012;2024-03-22T10:50:59;100994.59;;;9.88;100.00
30421;BME280;17218;54.070;10.012;2024-03-22T10:53:26;101003.19;;;9.65;100.00
30421;BME280;17218;54.070;10.012;2024-03-22T10:55:56;100991.13;;;9.60;100.00
30421;BME280;17218;54.070;10.012;2024-03-22T10:58:25;100999.75;;;9.48;100.00
30421;BME280;17218;54.070;10.012;2024-03-22T11:00:52;101010.97;;;9.47;100.00
30421;BME280;17218;54.070;10.012;2024-03-22T11:03:19;100995.47;;;9.70;100.00
30421;BME280;17218;54.070;10.012;2024-03-22T11:05:46;100985.09;;;9.76;100.00
30421;BME280;17218;54.070;10.012;2024-03-22T11:08:12;100980.78;;;9.99;100.00
30421;BME280;17218;54.070;10.012;2024-03-22T11:10:39;100972.13;;;10.17;100.00
30421;BME280;17218;54.070;10.012;2024-03-22T11:13:08;100971.25;;;10.21;100.00
30421;BME280;17218;54.070;10.012;2024-03-22T11:15:35;100970.44;;;10.11;100.00
30421;BME280;17218;54.070;10.012;2024-03-22T11:18:00;100960.03;;;10.21;100.00
30421;BME280;17218;54.070;10.012;2024-03-22T11:20:27;100962.63;;;10.24;100.00
30421;BME280;17218;54.070;10.012;2024-03-22T11:22:53;100959.09;;;10.55;100.00
30421;BME280;17218;54.070;10.012;2024-03-22T11:25:20;100947.91;;;10.51;100.00
30421;BME280;17218;54.070;10.012;2024-03-22T11:27:46;100939.19;;;10.72;100.00
30421;BME280;17218;54.070;10.012;2024-03-22T11:30:14;100939.19;;;10.68;100.00
30421;BME280;17218;54.070;10.012;2024-03-22T11:32:40;100943.38;;;10.95;100.00
30421;BME280;17218;54.070;10.012;2024-03-22T11:35:10;100949.25;;;11.26;100.00
30421;BME280;17218;54.070;10.012;2024-03-22T11:37:36;100928.50;;;11.23;100.00
30421;BME280;17218;54.070;10.012;2024-03-22T11:40:04;100938.81;;;11.37;100.00
30421;BME280;17218;54.070;10.012;2024-03-22T11:42:31;100927.59;;;11.31;100.00
30421;BME280;17218;54.070;10.012;2024-03-22T11:44:59;100912.91;;;11.29;100.00
30421;BME280;17218;54.070;10.012;2024-03-22T11:47:26;100913.78;;;11.29;100.00
30421;BME280;17218;54.070;10.012;2024-03-22T11:49:53;100916.34;;;11.34;100.00
30421;BME280;17218;54.070;10.012;2024-03-22T11:52:24;100910.97;;;11.57;100.00
30421;BME280;17218;54.070;10.012;2024-03-22T11:54:51;100898.88;;;11.55;100.00
30421;BME280;17218;54.070;10.012;2024-03-22T11:57:17;100899.72;;;11.54;100.00
30421;BME280;17218;54.070;10.012;2024-03-22T11:59:44;100906.63;;;11.58;100.00
30421;BME280;17218;54.070;10.012;2024-03-22T12:02:10;100896.28;;;11.55;100.00
30421;BME280;17218;54.070;10.012;2024-03-22T12:04:41;100893.66;;;11.61;100.00
30421;BME280;17218;54.070;10.012;2024-03-22T12:07:10;100874.78;;;11.42;100.00
30421;BME280;17218;54.070;10.012;2024-03-22T12:09:36;100888.78;;;11.17;100.00
30421;BME280;17218;54.070;10.012;2024-03-22T12:12:03;100891.38;;;11.19;100.00
30421;BME280;17218;54.070;10.012;2024-03-22T12:14:30;100885.44;;;11.03;100.00
30421;BME280;17218;54.070;10.012;2024-03-22T12:16:56;100891.41;;;11.16;100.00
30421;BME280;17218;54.070;10.012;2024-03-22T12:19:22;100884.59;;;11.04;100.00
30421;BME280;17218;54.070;10.012;2024-03-22T12:21:49;100891.44;;;11.09;100.00
30421;BME280;17218;54.070;10.012;2024-03-22T12:24:16;100893.41;;;10.76;100.00
30421;BME280;17218;54.070;10.012;2024-03-22T12:26:41;100902.91;;;10.69;100.00
30421;BME280;17218;54.070;10.012;2024-03-22T12:29:08;100904.63;;;10.72;100.00
30421;BME280;17218;54.070;10.012;2024-03-22T12:31:37;100897.72;;;10.71;100.00
30421;BME280;17218;54.070;10.012;2024-03-22T12:34:03;100902.13;;;10.55;100.00
30421;BME280;17218;54.070;10.012;2024-03-22T12:36:29;100913.34;;;10.58;100.00
30421;BME280;17218;54.070;10.012;2024-03-22T12:38:57;100924.59;;;10.46;100.00
30421;BME280;17218;54.070;10.012;2024-03-22T12:41:22;100922.88;;;10.48;100.00
30421;BME280;17218;54.070;10.012;2024-03-22T12:43:49;100922.00;;;10.53;100.00